MRBP weather

Barra de Parismina Airport
Pococi, Limon, Costa Rica

Public forecast

Using degrees Celsius for public forecast. Weather courtesy of forecast.io.

METAR (pilot weather report)

Closest report is Limon International Airport, 28.2 nm (52.3 km) SE. Retrieved 2019/05/23 12:00 UTC (13 minutes ago):

MRLM 231200Z 23004KT 9999 FEW015 BKN120 24/23 A2985

TAF (pilot weather forecast)

Closest forecast is Limon International Airport, 28.2 nm (52.3 km) SE. Retrieved 2019/05/23 12:10 UTC (3 minutes ago):

TAF MRLM 231100Z 2312/2412 25004KT 9999 FEW020 BKN100 TX29/2318Z TN23/2411Z TEMPO 2312/2314 DZ BECMG 2315/2317 10005KT BECMG 2319/2321 RA BECMG 2323/2401 26004KT